sensor_id;sensor_type;location;lat;lon;timestamp;P1;durP1;ratioP1;P2;durP2;ratioP2
78989;SDS011;68390;52.130;21.218;2023-07-08T00:00:11;10.23;;;5.88;;
78989;SDS011;68390;52.130;21.218;2023-07-08T00:02:41;13.65;;;6.53;;
78989;SDS011;68390;52.130;21.218;2023-07-08T00:05:08;13.05;;;6.30;;
78989;SDS011;68390;52.130;21.218;2023-07-08T00:07:39;9.10;;;5.90;;
78989;SDS011;68390;52.130;21.218;2023-07-08T00:10:16;9.07;;;6.53;;
78989;SDS011;68390;52.130;21.218;2023-07-08T00:12:47;10.90;;;6.22;;
78989;SDS011;68390;52.130;21.218;2023-07-08T00:15:15;9.75;;;6.82;;
78989;SDS011;68390;52.130;21.218;2023-07-08T00:17:41;10.98;;;7.20;;
78989;SDS011;68390;52.130;21.218;2023-07-08T00:20:11;12.80;;;7.18;;
78989;SDS011;68390;52.130;21.218;2023-07-08T00:22:45;11.70;;;6.85;;
78989;SDS011;68390;52.130;21.218;2023-07-08T00:25:20;11.95;;;6.00;;
78989;SDS011;68390;52.130;21.218;2023-07-08T00:27:46;12.25;;;6.07;;
78989;SDS011;68390;52.130;21.218;2023-07-08T00:30:22;10.05;;;6.22;;
78989;SDS011;68390;52.130;21.218;2023-07-08T00:32:53;11.93;;;8.05;;
78989;SDS011;68390;52.130;21.218;2023-07-08T00:35:24;11.55;;;8.32;;
78989;SDS011;68390;52.130;21.218;2023-07-08T00:37:54;10.98;;;7.03;;
78989;SDS011;68390;52.130;21.218;2023-07-08T00:40:26;11.18;;;7.68;;
78989;SDS011;68390;52.130;21.218;2023-07-08T00:42:54;9.38;;;6.90;;
78989;SDS011;68390;52.130;21.218;2023-07-08T00:50:48;12.25;;;6.97;;
78989;SDS011;68390;52.130;21.218;2023-07-08T00:53:32;8.82;;;6.10;;
78989;SDS011;68390;52.130;21.218;2023-07-08T00:56:03;10.05;;;7.07;;
78989;SDS011;68390;52.130;21.218;2023-07-08T00:58:38;10.77;;;7.70;;
78989;SDS011;68390;52.130;21.218;2023-07-08T01:01:15;11.65;;;7.10;;
78989;SDS011;68390;52.130;21.218;2023-07-08T01:04:04;10.88;;;7.53;;
78989;SDS011;68390;52.130;21.218;2023-07-08T01:06:32;11.57;;;8.18;;
78989;SDS011;68390;52.130;21.218;2023-07-08T01:09:05;11.00;;;8.32;;
78989;SDS011;68390;52.130;21.218;2023-07-08T01:11:32;12.93;;;8.00;;
78989;SDS011;68390;52.130;21.218;2023-07-08T01:14:00;13.32;;;7.97;;
78989;SDS011;68390;52.130;21.218;2023-07-08T01:16:26;11.13;;;7.10;;
78989;SDS011;68390;52.130;21.218;2023-07-08T01:18:52;11.02;;;6.97;;
78989;SDS011;68390;52.130;21.218;2023-07-08T01:23:57;12.85;;;8.18;;
78989;SDS011;68390;52.130;21.218;2023-07-08T01:26:25;11.30;;;7.78;;
78989;SDS011;68390;52.130;21.218;2023-07-08T01:28:52;10.52;;;6.95;;
78989;SDS011;68390;52.130;21.218;2023-07-08T01:33:46;14.23;;;8.32;;
78989;SDS011;68390;52.130;21.218;2023-07-08T01:36:11;13.68;;;7.95;;
78989;SDS011;68390;52.130;21.218;2023-07-08T01:38:37;7.20;;;5.55;;
78989;SDS011;68390;52.130;21.218;2023-07-08T01:41:04;12.43;;;7.88;;
78989;SDS011;68390;52.130;21.218;2023-07-08T01:43:30;9.40;;;6.93;;
78989;SDS011;68390;52.130;21.218;2023-07-08T01:45:56;10.68;;;7.80;;
78989;SDS011;68390;52.130;21.218;2023-07-08T01:48:25;11.80;;;7.97;;
78989;SDS011;68390;52.130;21.218;2023-07-08T01:51:03;11.38;;;7.72;;
78989;SDS011;68390;52.130;21.218;2023-07-08T01:53:34;10.30;;;6.90;;
78989;SDS011;68390;52.130;21.218;2023-07-08T01:56:01;11.25;;;6.93;;
78989;SDS011;68390;52.130;21.218;2023-07-08T01:58:27;10.13;;;8.13;;
78989;SDS011;68390;52.130;21.218;2023-07-08T02:00:53;10.13;;;7.70;;
78989;SDS011;68390;52.130;21.218;2023-07-08T02:03:19;10.52;;;6.53;;
78989;SDS011;68390;52.130;21.218;2023-07-08T02:05:44;9.10;;;6.60;;
78989;SDS011;68390;52.130;21.218;2023-07-08T02:08:10;13.05;;;7.47;;
78989;SDS011;68390;52.130;21.218;2023-07-08T02:10:36;11.55;;;7.75;;
78989;SDS011;68390;52.130;21.218;2023-07-08T02:13:05;10.63;;;6.80;;
78989;SDS011;68390;52.130;21.218;2023-07-08T02:15:30;14.00;;;8.63;;
78989;SDS011;68390;52.130;21.218;2023-07-08T02:17:55;14.55;;;9.13;;
78989;SDS011;68390;52.130;21.218;2023-07-08T02:20:21;11.60;;;6.97;;
78989;SDS011;68390;52.130;21.218;2023-07-08T02:22:47;9.32;;;6.00;;
78989;SDS011;68390;52.130;21.218;2023-07-08T02:25:13;10.30;;;6.97;;
78989;SDS011;68390;52.130;21.218;2023-07-08T02:27:38;11.30;;;6.68;;
78989;SDS011;68390;52.130;21.218;2023-07-08T02:30:04;12.50;;;7.47;;
78989;SDS011;68390;52.130;21.218;2023-07-08T02:32:31;13.85;;;8.13;;
78989;SDS011;68390;52.130;21.218;2023-07-08T02:34:59;8.93;;;6.28;;
78989;SDS011;68390;52.130;21.218;2023-07-08T02:37:25;9.63;;;6.43;;
78989;SDS011;68390;52.130;21.218;2023-07-08T02:39:51;8.80;;;6.85;;
78989;SDS011;68390;52.130;21.218;2023-07-08T02:42:16;9.18;;;7.32;;
78989;SDS011;68390;52.130;21.218;2023-07-08T02:44:42;9.10;;;6.18;;
78989;SDS011;68390;52.130;21.218;2023-07-08T02:47:07;10.27;;;7.17;;
78989;SDS011;68390;52.130;21.218;2023-07-08T02:49:32;11.85;;;8.13;;
78989;SDS011;68390;52.130;21.218;2023-07-08T02:51:58;10.25;;;7.22;;
78989;SDS011;68390;52.130;21.218;2023-07-08T02:54:24;12.17;;;8.30;;
78989;SDS011;68390;52.130;21.218;2023-07-08T02:56:49;8.40;;;6.77;;
78989;SDS011;68390;52.130;21.218;2023-07-08T02:59:14;16.07;;;8.50;;
78989;SDS011;68390;52.130;21.218;2023-07-08T03:01:40;11.70;;;7.57;;
78989;SDS011;68390;52.130;21.218;2023-07-08T03:04:08;10.40;;;6.90;;
78989;SDS011;68390;52.130;21.218;2023-07-08T03:06:38;9.57;;;7.28;;
78989;SDS011;68390;52.130;21.218;2023-07-08T03:09:10;9.90;;;7.20;;
78989;SDS011;68390;52.130;21.218;2023-07-08T03:11:37;11.95;;;7.22;;
78989;SDS011;68390;52.130;21.218;2023-07-08T03:14:03;10.13;;;7.57;;
78989;SDS011;68390;52.130;21.218;2023-07-08T03:16:30;12.60;;;8.65;;
78989;SDS011;68390;52.130;21.218;2023-07-08T03:18:55;11.52;;;8.43;;
78989;SDS011;68390;52.130;21.218;2023-07-08T03:21:21;12.02;;;7.65;;
78989;SDS011;68390;52.130;21.218;2023-07-08T03:23:47;13.18;;;9.15;;
78989;SDS011;68390;52.130;21.218;2023-07-08T03:26:18;15.60;;;9.75;;
78989;SDS011;68390;52.130;21.218;2023-07-08T03:28:46;9.55;;;7.25;;
78989;SDS011;68390;52.130;21.218;2023-07-08T03:31:12;11.65;;;8.30;;
78989;SDS011;68390;52.130;21.218;2023-07-08T03:33:37;15.13;;;9.43;;
78989;SDS011;68390;52.130;21.218;2023-07-08T03:36:03;13.02;;;8.65;;
78989;SDS011;68390;52.130;21.218;2023-07-08T03:38:37;15.10;;;8.88;;
78989;SDS011;68390;52.130;21.218;2023-07-08T03:41:03;13.15;;;8.25;;
78989;SDS011;68390;52.130;21.218;2023-07-08T03:43:28;10.68;;;7.30;;
78989;SDS011;68390;52.130;21.218;2023-07-08T03:45:53;10.52;;;6.57;;
78989;SDS011;68390;52.130;21.218;2023-07-08T03:48:19;13.32;;;9.18;;
78989;SDS011;68390;52.130;21.218;2023-07-08T03:50:44;12.15;;;7.72;;
78989;SDS011;68390;52.130;21.218;2023-07-08T03:53:09;12.90;;;8.70;;
78989;SDS011;68390;52.130;21.218;2023-07-08T03:55:35;15.30;;;7.60;;
78989;SDS011;68390;52.130;21.218;2023-07-08T03:58:00;12.43;;;8.02;;
78989;SDS011;68390;52.130;21.218;2023-07-08T04:00:26;18.52;;;9.30;;
78989;SDS011;68390;52.130;21.218;2023-07-08T04:02:51;15.80;;;9.05;;
78989;SDS011;68390;52.130;21.218;2023-07-08T04:05:20;12.68;;;7.13;;
78989;SDS011;68390;52.130;21.218;2023-07-08T04:07:47;12.93;;;8.05;;
78989;SDS011;68390;52.130;21.218;2023-07-08T04:10:13;11.40;;;7.93;;
78989;SDS011;68390;52.130;21.218;2023-07-08T04:12:39;11.07;;;7.35;;
78989;SDS011;68390;52.130;21.218;2023-07-08T04:15:06;10.93;;;8.07;;
78989;SDS011;68390;52.130;21.218;2023-07-08T04:17:33;13.32;;;7.82;;
78989;SDS011;68390;52.130;21.218;2023-07-08T04:20:02;15.50;;;9.18;;
78989;SDS011;68390;52.130;21.218;2023-07-08T04:22:28;15.50;;;9.05;;
78989;SDS011;68390;52.130;21.218;2023-07-08T04:24:54;11.75;;;8.18;;
78989;SDS011;68390;52.130;21.218;2023-07-08T04:27:20;14.43;;;9.05;;
78989;SDS011;68390;52.130;21.218;2023-07-08T04:29:45;12.85;;;7.53;;
78989;SDS011;68390;52.130;21.218;2023-07-08T04:32:10;9.93;;;7.85;;
78989;SDS011;68390;52.130;21.218;2023-07-08T04:34:36;13.65;;;9.07;;
78989;SDS011;68390;52.130;21.218;2023-07-08T04:37:01;14.50;;;9.38;;
78989;SDS011;68390;52.130;21.218;2023-07-08T04:39:29;12.57;;;7.50;;
78989;SDS011;68390;52.130;21.218;2023-07-08T04:41:55;14.63;;;8.95;;
78989;SDS011;68390;52.130;21.218;2023-07-08T04:44:21;16.00;;;8.90;;
78989;SDS011;68390;52.130;21.218;2023-07-08T04:46:51;15.73;;;8.27;;
78989;SDS011;68390;52.130;21.218;2023-07-08T04:49:19;12.32;;;7.60;;
78989;SDS011;68390;52.130;21.218;2023-07-08T04:51:45;13.98;;;7.32;;
78989;SDS011;68390;52.130;21.218;2023-07-08T04:54:11;11.57;;;7.43;;
78989;SDS011;68390;52.130;21.218;2023-07-08T04:59:04;11.40;;;7.22;;
78989;SDS011;68390;52.130;21.218;2023-07-08T05:01:31;10.25;;;7.15;;
78989;SDS011;68390;52.130;21.218;2023-07-08T05:03:56;11.60;;;7.05;;
78989;SDS011;68390;52.130;21.218;2023-07-08T05:06:22;11.40;;;7.35;;
78989;SDS011;68390;52.130;21.218;2023-07-08T05:08:47;11.05;;;7.25;;
78989;SDS011;68390;52.130;21.218;2023-07-08T05:11:13;10.88;;;7.43;;
78989;SDS011;68390;52.130;21.218;2023-07-08T05:13:38;10.07;;;5.75;;
78989;SDS011;68390;52.130;21.218;2023-07-08T05:16:03;13.20;;;5.78;;
78989;SDS011;68390;52.130;21.218;2023-07-08T05:18:29;9.80;;;5.97;;
78989;SDS011;68390;52.130;21.218;2023-07-08T05:20:55;8.77;;;6.03;;
78989;SDS011;68390;52.130;21.218;2023-07-08T05:23:21;11.98;;;5.82;;
78989;SDS011;68390;52.130;21.218;2023-07-08T05:25:46;12.15;;;6.13;;
78989;SDS011;68390;52.130;21.218;2023-07-08T05:28:12;8.82;;;5.72;;
78989;SDS011;68390;52.130;21.218;2023-07-08T05:30:39;12.23;;;5.93;;
78989;SDS011;68390;52.130;21.218;2023-07-08T05:33:06;7.93;;;5.80;;
78989;SDS011;68390;52.130;21.218;2023-07-08T05:35:31;14.40;;;6.35;;
78989;SDS011;68390;52.130;21.218;2023-07-08T05:37:57;11.95;;;5.97;;
78989;SDS011;68390;52.130;21.218;2023-07-08T05:40:22;13.25;;;5.90;;
78989;SDS011;68390;52.130;21.218;2023-07-08T05:42:47;16.08;;;5.55;;
78989;SDS011;68390;52.130;21.218;2023-07-08T05:45:13;8.68;;;5.90;;
78989;SDS011;68390;52.130;21.218;2023-07-08T05:47:38;9.90;;;5.55;;
78989;SDS011;68390;52.130;21.218;2023-07-08T05:50:04;10.87;;;5.70;;
78989;SDS011;68390;52.130;21.218;2023-07-08T05:52:29;10.20;;;5.60;;
78989;SDS011;68390;52.130;21.218;2023-07-08T05:54:55;11.18;;;5.50;;
78989;SDS011;68390;52.130;21.218;2023-07-08T05:57:20;9.70;;;4.72;;
78989;SDS011;68390;52.130;21.218;2023-07-08T05:59:46;7.30;;;4.90;;
78989;SDS011;68390;52.130;21.218;2023-07-08T06:02:11;11.55;;;5.45;;
78989;SDS011;68390;52.130;21.218;2023-07-08T06:04:38;7.72;;;5.05;;
78989;SDS011;68390;52.130;21.218;2023-07-08T06:07:04;9.60;;;5.45;;
78989;SDS011;68390;52.130;21.218;2023-07-08T06:09:29;6.70;;;4.70;;
78989;SDS011;68390;52.130;21.218;2023-07-08T06:11:55;8.48;;;5.32;;
78989;SDS011;68390;52.130;21.218;2023-07-08T06:14:20;8.52;;;5.82;;
78989;SDS011;68390;52.130;21.218;2023-07-08T06:16:45;8.75;;;5.85;;
78989;SDS011;68390;52.130;21.218;2023-07-08T06:19:11;9.20;;;6.38;;
78989;SDS011;68390;52.130;21.218;2023-07-08T06:21:36;10.90;;;6.13;;
78989;SDS011;68390;52.130;21.218;2023-07-08T06:24:02;8.52;;;6.18;;
78989;SDS011;68390;52.130;21.218;2023-07-08T06:26:28;11.73;;;6.22;;
78989;SDS011;68390;52.130;21.218;2023-07-08T06:28:53;9.57;;;6.20;;
78989;SDS011;68390;52.130;21.218;2023-07-08T06:31:19;7.70;;;5.47;;
78989;SDS011;68390;52.130;21.218;2023-07-08T06:33:44;10.70;;;6.35;;
78989;SDS011;68390;52.130;21.218;2023-07-08T06:36:09;10.20;;;6.05;;
78989;SDS011;68390;52.130;21.218;2023-07-08T06:38:35;9.57;;;6.03;;
78989;SDS011;68390;52.130;21.218;2023-07-08T06:41:00;10.20;;;5.68;;
78989;SDS011;68390;52.130;21.218;2023-07-08T06:43:26;10.98;;;5.72;;
78989;SDS011;68390;52.130;21.218;2023-07-08T06:45:51;9.00;;;4.85;;
78989;SDS011;68390;52.130;21.218;2023-07-08T06:48:17;7.15;;;4.72;;
78989;SDS011;68390;52.130;21.218;2023-07-08T06:50:45;9.70;;;5.28;;
78989;SDS011;68390;52.130;21.218;2023-07-08T06:53:12;8.15;;;5.03;;
78989;SDS011;68390;52.130;21.218;2023-07-08T06:55:38;8.93;;;5.50;;
78989;SDS011;68390;52.130;21.218;2023-07-08T06:58:04;8.85;;;5.43;;
78989;SDS011;68390;52.130;21.218;2023-07-08T07:00:29;9.05;;;5.30;;
78989;SDS011;68390;52.130;21.218;2023-07-08T07:02:55;6.53;;;4.90;;
78989;SDS011;68390;52.130;21.218;2023-07-08T07:05:20;8.30;;;5.03;;
78989;SDS011;68390;52.130;21.218;2023-07-08T07:07:46;5.90;;;4.38;;
78989;SDS011;68390;52.130;21.218;2023-07-08T07:10:11;6.38;;;4.30;;
78989;SDS011;68390;52.130;21.218;2023-07-08T07:12:36;4.93;;;3.75;;
78989;SDS011;68390;52.130;21.218;2023-07-08T07:15:02;6.40;;;3.58;;
78989;SDS011;68390;52.130;21.218;2023-07-08T07:17:28;5.60;;;3.35;;
78989;SDS011;68390;52.130;21.218;2023-07-08T07:19:54;4.40;;;3.50;;
78989;SDS011;68390;52.130;21.218;2023-07-08T07:22:19;7.35;;;4.53;;
78989;SDS011;68390;52.130;21.218;2023-07-08T07:24:45;6.78;;;3.90;;
78989;SDS011;68390;52.130;21.218;2023-07-08T07:27:10;5.75;;;4.40;;
78989;SDS011;68390;52.130;21.218;2023-07-08T07:29:45;5.80;;;3.72;;
78989;SDS011;68390;52.130;21.218;2023-07-08T07:32:13;6.05;;;3.60;;
78989;SDS011;68390;52.130;21.218;2023-07-08T07:34:39;5.15;;;3.55;;
78989;SDS011;68390;52.130;21.218;2023-07-08T07:37:14;4.85;;;3.38;;
78989;SDS011;68390;52.130;21.218;2023-07-08T07:39:41;5.53;;;3.38;;
78989;SDS011;68390;52.130;21.218;2023-07-08T07:42:08;7.65;;;3.47;;
78989;SDS011;68390;52.130;21.218;2023-07-08T07:44:34;5.38;;;3.83;;
78989;SDS011;68390;52.130;21.218;2023-07-08T07:46:59;5.85;;;3.03;;
78989;SDS011;68390;52.130;21.218;2023-07-08T07:49:27;6.57;;;3.33;;
78989;SDS011;68390;52.130;21.218;2023-07-08T07:51:52;6.45;;;3.45;;
78989;SDS011;68390;52.130;21.218;2023-07-08T07:54:18;7.45;;;2.88;;
78989;SDS011;68390;52.130;21.218;2023-07-08T07:56:43;5.20;;;2.90;;
78989;SDS011;68390;52.130;21.218;2023-07-08T07:59:09;4.03;;;2.72;;
78989;SDS011;68390;52.130;21.218;2023-07-08T08:01:35;6.53;;;2.90;;
78989;SDS011;68390;52.130;21.218;2023-07-08T08:04:01;4.97;;;2.60;;
78989;SDS011;68390;52.130;21.218;2023-07-08T08:06:26;4.13;;;2.72;;
78989;SDS011;68390;52.130;21.218;2023-07-08T08:08:52;4.70;;;2.80;;
78989;SDS011;68390;52.130;21.218;2023-07-08T08:11:18;4.22;;;2.67;;
78989;SDS011;68390;52.130;21.218;2023-07-08T08:13:43;4.32;;;2.70;;
78989;SDS011;68390;52.130;21.218;2023-07-08T08:16:09;4.25;;;2.78;;
78989;SDS011;68390;52.130;21.218;2023-07-08T08:18:34;5.05;;;2.50;;
78989;SDS011;68390;52.130;21.218;2023-07-08T08:20:59;4.38;;;2.70;;
78989;SDS011;68390;52.130;21.218;2023-07-08T08:23:25;5.30;;;2.50;;
78989;SDS011;68390;52.130;21.218;2023-07-08T08:25:51;3.83;;;2.35;;
78989;SDS011;68390;52.130;21.218;2023-07-08T08:28:16;5.13;;;2.75;;
78989;SDS011;68390;52.130;21.218;2023-07-08T08:30:41;4.80;;;2.50;;
78989;SDS011;68390;52.130;21.218;2023-07-08T08:33:11;5.30;;;2.45;;
78989;SDS011;68390;52.130;21.218;2023-07-08T08:35:36;4.53;;;2.67;;
78989;SDS011;68390;52.130;21.218;2023-07-08T08:38:02;7.22;;;2.78;;
78989;SDS011;68390;52.130;21.218;2023-07-08T08:40:28;6.28;;;2.63;;
78989;SDS011;68390;52.130;21.218;2023-07-08T08:43:03;4.57;;;2.63;;
78989;SDS011;68390;52.130;21.218;2023-07-08T08:45:34;2.78;;;2.13;;
78989;SDS011;68390;52.130;21.218;2023-07-08T08:48:04;4.00;;;2.45;;
78989;SDS011;68390;52.130;21.218;2023-07-08T08:50:39;9.00;;;3.80;;
78989;SDS011;68390;52.130;21.218;2023-07-08T08:53:09;4.50;;;2.63;;
78989;SDS011;68390;52.130;21.218;2023-07-08T08:55:37;6.45;;;3.00;;
78989;SDS011;68390;52.130;21.218;2023-07-08T09:00:58;4.25;;;2.60;;
78989;SDS011;68390;52.130;21.218;2023-07-08T09:06:24;11.48;;;4.90;;
78989;SDS011;68390;52.130;21.218;2023-07-08T09:08:52;7.60;;;2.90;;
78989;SDS011;68390;52.130;21.218;2023-07-08T09:11:21;10.40;;;3.92;;
78989;SDS011;68390;52.130;21.218;2023-07-08T09:13:55;5.50;;;2.95;;
78989;SDS011;68390;52.130;21.218;2023-07-08T09:19:06;3.83;;;2.55;;
78989;SDS011;68390;52.130;21.218;2023-07-08T09:21:40;4.55;;;2.47;;
78989;SDS011;68390;52.130;21.218;2023-07-08T09:27:24;3.97;;;2.55;;
78989;SDS011;68390;52.130;21.218;2023-07-08T09:29:49;3.72;;;2.58;;
78989;SDS011;68390;52.130;21.218;2023-07-08T09:32:17;5.07;;;2.85;;
78989;SDS011;68390;52.130;21.218;2023-07-08T09:34:49;5.43;;;2.63;;
78989;SDS011;68390;52.130;21.218;2023-07-08T09:39:57;7.72;;;3.42;;
78989;SDS011;68390;52.130;21.218;2023-07-08T09:42:34;3.92;;;2.50;;
78989;SDS011;68390;52.130;21.218;2023-07-08T09:45:01;4.93;;;2.90;;
78989;SDS011;68390;52.130;21.218;2023-07-08T09:47:37;4.60;;;2.55;;
78989;SDS011;68390;52.130;21.218;2023-07-08T09:50:16;4.22;;;2.25;;
78989;SDS011;68390;52.130;21.218;2023-07-08T09:52:49;5.15;;;2.65;;
78989;SDS011;68390;52.130;21.218;2023-07-08T09:55:17;4.85;;;2.38;;
78989;SDS011;68390;52.130;21.218;2023-07-08T09:57:43;4.32;;;2.85;;
78989;SDS011;68390;52.130;21.218;2023-07-08T10:00:12;5.20;;;2.63;;
78989;SDS011;68390;52.130;21.218;2023-07-08T10:02:52;3.50;;;2.67;;
78989;SDS011;68390;52.130;21.218;2023-07-08T10:05:25;4.45;;;2.90;;
78989;SDS011;68390;52.130;21.218;2023-07-08T10:07:52;4.55;;;2.90;;
78989;SDS011;68390;52.130;21.218;2023-07-08T10:10:23;4.13;;;2.90;;
78989;SDS011;68390;52.130;21.218;2023-07-08T10:12:56;4.78;;;2.78;;
78989;SDS011;68390;52.130;21.218;2023-07-08T10:15:28;4.00;;;2.70;;
78989;SDS011;68390;52.130;21.218;2023-07-08T10:17:58;4.85;;;3.00;;
78989;SDS011;68390;52.130;21.218;2023-07-08T10:20:24;4.82;;;3.10;;
78989;SDS011;68390;52.130;21.218;2023-07-08T10:23:22;7.35;;;3.17;;
78989;SDS011;68390;52.130;21.218;2023-07-08T10:29:08;7.70;;;3.00;;
78989;SDS011;68390;52.130;21.218;2023-07-08T10:51:13;4.97;;;3.00;;
78989;SDS011;68390;52.130;21.218;2023-07-08T11:05:31;4.32;;;2.63;;
78989;SDS011;68390;52.130;21.218;2023-07-08T11:08:10;4.63;;;2.90;;
78989;SDS011;68390;52.130;21.218;2023-07-08T11:13:17;3.63;;;2.78;;
78989;SDS011;68390;52.130;21.218;2023-07-08T11:15:47;5.18;;;2.90;;
78989;SDS011;68390;52.130;21.218;2023-07-08T11:18:41;6.32;;;3.38;;
78989;SDS011;68390;52.130;21.218;2023-07-08T11:21:14;6.45;;;2.70;;
78989;SDS011;68390;52.130;21.218;2023-07-08T11:23:51;4.88;;;2.45;;
78989;SDS011;68390;52.130;21.218;2023-07-08T11:29:00;4.15;;;2.65;;
78989;SDS011;68390;52.130;21.218;2023-07-08T11:31:28;5.15;;;2.90;;
78989;SDS011;68390;52.130;21.218;2023-07-08T11:33:57;4.40;;;2.72;;
78989;SDS011;68390;52.130;21.218;2023-07-08T11:36:25;3.70;;;2.83;;
78989;SDS011;68390;52.130;21.218;2023-07-08T11:38:55;4.00;;;2.92;;
78989;SDS011;68390;52.130;21.218;2023-07-08T11:41:23;4.25;;;2.97;;
78989;SDS011;68390;52.130;21.218;2023-07-08T11:43:56;6.00;;;3.10;;
78989;SDS011;68390;52.130;21.218;2023-07-08T11:46:24;3.63;;;2.67;;
78989;SDS011;68390;52.130;21.218;2023-07-08T11:48:53;5.10;;;3.08;;
78989;SDS011;68390;52.130;21.218;2023-07-08T11:51:26;6.22;;;3.03;;
78989;SDS011;68390;52.130;21.218;2023-07-08T11:56:29;4.85;;;3.00;;
78989;SDS011;68390;52.130;21.218;2023-07-08T11:59:17;5.40;;;2.80;;
78989;SDS011;68390;52.130;21.218;2023-07-08T12:01:51;4.05;;;2.85;;
78989;SDS011;68390;52.130;21.218;2023-07-08T12:07:09;4.00;;;2.70;;
78989;SDS011;68390;52.130;21.218;2023-07-08T12:10:00;4.15;;;2.88;;
78989;SDS011;68390;52.130;21.218;2023-07-08T12:12:35;4.78;;;2.72;;
78989;SDS011;68390;52.130;21.218;2023-07-08T12:17:50;8.27;;;3.30;;
78989;SDS011;68390;52.130;21.218;2023-07-08T12:20:21;5.28;;;3.08;;
78989;SDS011;68390;52.130;21.218;2023-07-08T12:22:49;4.10;;;2.97;;
78989;SDS011;68390;52.130;21.218;2023-07-08T12:25:16;4.22;;;2.90;;
78989;SDS011;68390;52.130;21.218;2023-07-08T12:27:44;3.97;;;2.80;;
78989;SDS011;68390;52.130;21.218;2023-07-08T12:30:11;3.88;;;2.83;;
78989;SDS011;68390;52.130;21.218;2023-07-08T12:32:38;5.20;;;3.13;;
78989;SDS011;68390;52.130;21.218;2023-07-08T12:35:04;4.25;;;3.13;;
78989;SDS011;68390;52.130;21.218;2023-07-08T12:37:39;5.93;;;2.78;;
78989;SDS011;68390;52.130;21.218;2023-07-08T12:40:08;3.63;;;2.95;;
78989;SDS011;68390;52.130;21.218;2023-07-08T12:42:35;3.97;;;2.90;;
78989;SDS011;68390;52.130;21.218;2023-07-08T12:45:00;4.40;;;3.00;;
78989;SDS011;68390;52.130;21.218;2023-07-08T12:47:25;4.35;;;3.03;;
78989;SDS011;68390;52.130;21.218;2023-07-08T12:49:51;3.88;;;2.80;;
78989;SDS011;68390;52.130;21.218;2023-07-08T12:52:19;5.75;;;3.20;;
78989;SDS011;68390;52.130;21.218;2023-07-08T12:54:46;6.63;;;3.03;;
78989;SDS011;68390;52.130;21.218;2023-07-08T12:57:11;5.68;;;2.92;;
78989;SDS011;68390;52.130;21.218;2023-07-08T12:59:36;4.57;;;3.17;;
78989;SDS011;68390;52.130;21.218;2023-07-08T13:02:03;5.60;;;2.80;;
78989;SDS011;68390;52.130;21.218;2023-07-08T13:04:34;3.90;;;3.10;;
78989;SDS011;68390;52.130;21.218;2023-07-08T13:07:01;6.45;;;3.22;;
78989;SDS011;68390;52.130;21.218;2023-07-08T13:09:36;6.78;;;3.30;;
78989;SDS011;68390;52.130;21.218;2023-07-08T13:12:12;3.78;;;2.95;;
78989;SDS011;68390;52.130;21.218;2023-07-08T13:14:40;4.70;;;3.42;;
78989;SDS011;68390;52.130;21.218;2023-07-08T13:17:09;4.50;;;3.17;;
78989;SDS011;68390;52.130;21.218;2023-07-08T13:19:37;4.70;;;3.22;;
78989;SDS011;68390;52.130;21.218;2023-07-08T13:22:03;6.18;;;2.97;;
78989;SDS011;68390;52.130;21.218;2023-07-08T13:24:30;4.22;;;2.72;;
78989;SDS011;68390;52.130;21.218;2023-07-08T13:26:58;5.45;;;3.30;;
78989;SDS011;68390;52.130;21.218;2023-07-08T13:29:23;6.55;;;3.22;;
78989;SDS011;68390;52.130;21.218;2023-07-08T13:31:55;5.35;;;3.30;;
78989;SDS011;68390;52.130;21.218;2023-07-08T13:34:23;4.78;;;3.15;;
78989;SDS011;68390;52.130;21.218;2023-07-08T13:36:50;6.07;;;3.25;;
78989;SDS011;68390;52.130;21.218;2023-07-08T13:39:32;3.97;;;2.95;;
78989;SDS011;68390;52.130;21.218;2023-07-08T13:42:00;4.95;;;2.97;;
78989;SDS011;68390;52.130;21.218;2023-07-08T13:44:27;5.15;;;3.03;;
78989;SDS011;68390;52.130;21.218;2023-07-08T13:46:54;5.03;;;3.30;;
78989;SDS011;68390;52.130;21.218;2023-07-08T13:52:13;5.40;;;2.92;;
78989;SDS011;68390;52.130;21.218;2023-07-08T13:54:49;5.85;;;3.60;;
78989;SDS011;68390;52.130;21.218;2023-07-08T13:57:18;5.43;;;3.17;;
78989;SDS011;68390;52.130;21.218;2023-07-08T13:59:47;7.35;;;3.25;;
78989;SDS011;68390;52.130;21.218;2023-07-08T14:02:26;4.65;;;3.10;;
78989;SDS011;68390;52.130;21.218;2023-07-08T14:04:54;5.80;;;3.50;;
78989;SDS011;68390;52.130;21.218;2023-07-08T14:07:23;3.83;;;3.15;;
78989;SDS011;68390;52.130;21.218;2023-07-08T14:09:51;4.00;;;3.08;;
78989;SDS011;68390;52.130;21.218;2023-07-08T14:12:17;6.00;;;3.42;;
78989;SDS011;68390;52.130;21.218;2023-07-08T14:14:43;4.18;;;3.05;;
78989;SDS011;68390;52.130;21.218;2023-07-08T14:17:09;5.05;;;3.08;;
78989;SDS011;68390;52.130;21.218;2023-07-08T14:19:37;4.10;;;3.13;;
78989;SDS011;68390;52.130;21.218;2023-07-08T14:24:38;4.05;;;3.20;;
78989;SDS011;68390;52.130;21.218;2023-07-08T14:27:04;5.00;;;3.15;;
78989;SDS011;68390;52.130;21.218;2023-07-08T14:32:52;4.43;;;3.15;;
78989;SDS011;68390;52.130;21.218;2023-07-08T14:35:24;5.22;;;3.20;;
78989;SDS011;68390;52.130;21.218;2023-07-08T14:37:52;4.68;;;3.25;;
78989;SDS011;68390;52.130;21.218;2023-07-08T14:42:47;5.38;;;3.30;;
78989;SDS011;68390;52.130;21.218;2023-07-08T14:45:13;7.00;;;3.60;;
78989;SDS011;68390;52.130;21.218;2023-07-08T14:47:38;5.32;;;3.50;;
78989;SDS011;68390;52.130;21.218;2023-07-08T14:50:13;5.80;;;3.30;;
78989;SDS011;68390;52.130;21.218;2023-07-08T14:52:40;5.30;;;3.33;;
78989;SDS011;68390;52.130;21.218;2023-07-08T14:55:06;5.68;;;3.20;;
78989;SDS011;68390;52.130;21.218;2023-07-08T14:57:33;4.88;;;3.50;;
78989;SDS011;68390;52.130;21.218;2023-07-08T15:00:04;5.85;;;3.05;;
78989;SDS011;68390;52.130;21.218;2023-07-08T15:02:30;5.78;;;2.97;;
78989;SDS011;68390;52.130;21.218;2023-07-08T15:04:59;4.00;;;3.17;;
78989;SDS011;68390;52.130;21.218;2023-07-08T15:07:26;7.10;;;3.00;;
78989;SDS011;68390;52.130;21.218;2023-07-08T15:09:51;6.00;;;3.30;;
78989;SDS011;68390;52.130;21.218;2023-07-08T15:12:17;4.72;;;3.15;;
78989;SDS011;68390;52.130;21.218;2023-07-08T15:14:42;5.75;;;3.65;;
78989;SDS011;68390;52.130;21.218;2023-07-08T15:17:14;6.15;;;3.72;;
78989;SDS011;68390;52.130;21.218;2023-07-08T15:19:42;5.07;;;3.33;;
78989;SDS011;68390;52.130;21.218;2023-07-08T15:22:08;4.97;;;2.92;;
78989;SDS011;68390;52.130;21.218;2023-07-08T15:24:34;6.45;;;3.22;;
78989;SDS011;68390;52.130;21.218;2023-07-08T15:27:00;4.40;;;3.10;;
78989;SDS011;68390;52.130;21.218;2023-07-08T15:29:28;6.28;;;3.15;;
78989;SDS011;68390;52.130;21.218;2023-07-08T15:31:53;6.05;;;3.97;;
78989;SDS011;68390;52.130;21.218;2023-07-08T15:34:22;5.97;;;3.17;;
78989;SDS011;68390;52.130;21.218;2023-07-08T15:36:48;5.88;;;3.20;;
78989;SDS011;68390;52.130;21.218;2023-07-08T15:39:14;4.50;;;3.35;;
78989;SDS011;68390;52.130;21.218;2023-07-08T15:41:40;5.80;;;3.33;;
78989;SDS011;68390;52.130;21.218;2023-07-08T15:44:10;3.75;;;3.20;;
78989;SDS011;68390;52.130;21.218;2023-07-08T15:46:39;4.00;;;3.28;;
78989;SDS011;68390;52.130;21.218;2023-07-08T15:51:38;6.50;;;3.30;;
78989;SDS011;68390;52.130;21.218;2023-07-08T15:54:03;5.97;;;2.90;;
78989;SDS011;68390;52.130;21.218;2023-07-08T15:56:28;4.78;;;2.90;;
78989;SDS011;68390;52.130;21.218;2023-07-08T15:58:54;3.95;;;3.22;;
78989;SDS011;68390;52.130;21.218;2023-07-08T16:01:20;4.80;;;3.30;;
78989;SDS011;68390;52.130;21.218;2023-07-08T16:03:48;5.95;;;3.78;;